Accueil
METAR-TAF:

METAR-TAF

Aéroports :

Brighton, Angleterre

Aéroport de Shoreham

latitude: 50-50N, longitude: 000-17W, altitude: 2 m

Observation

Le bulletin a été fait il y a 12 heures et 32 minutes, à 19:50 UTC
Vent 2 kt de nord
Température 1°C
Humidité 86%
Pression 1028 hPa
Visibilité 10 km ou plus
pas de nuages en-dessous de 1500 mètres et pas de cumulonimbus.

METAR: EGKA 171950Z 01002KT CAVOK 01/M01 Q1028

Heure: 08:22 (08:22 UTC)

Prévision

Le bulletin a été fait il y a 15 heures et 24 minutes, à 16:58 UTC
Prévision valable du 17 à 18 UTC au 17 à 22 UTC
Vent 4 kt de nord/nord-ouest
Visibilité 10 km ou plus
Quelques nuages à une hauteur de 3500 ft

TAF: EGKA 171658Z 1718/1722 33004KT 9999 FEW035

Observations et prévisions météorologiques de plus de 4000 aéroports (messages METAR et TAF).

Les stations disponibles sont représentées par des disques jaunes et rouges sur la carte.

Passer la souris dessus pour voir le nom de la station.

Cliquer dessus pour voir les observations et prévisions météorologiques.

Pour changer de carte: cliquez sur les boutons verts avec une croix noire pour zoomer, sur le bouton vert avec un tiret pour effectuer un zoom arrière, ou sur les flèches vertes pour les cartes adjacentes.


METAR-TAF: